sensor_id;sensor_type;location;lat;lon;timestamp;P1;durP1;ratioP1;P2;durP2;ratioP2
68216;SDS011;55037;52.354;4.992;2024-02-21T00:01:39;9.07;;;2.08;;
68216;SDS011;55037;52.354;4.992;2024-02-21T00:04:07;12.80;;;2.42;;
68216;SDS011;55037;52.354;4.992;2024-02-21T00:06:35;14.20;;;1.70;;
68216;SDS011;55037;52.354;4.992;2024-02-21T00:09:02;11.48;;;1.65;;
68216;SDS011;55037;52.354;4.992;2024-02-21T00:11:30;3.07;;;1.33;;
68216;SDS011;55037;52.354;4.992;2024-02-21T00:14:00;8.63;;;2.25;;
68216;SDS011;55037;52.354;4.992;2024-02-21T00:16:28;10.88;;;2.80;;
68216;SDS011;55037;52.354;4.992;2024-02-21T00:18:55;14.70;;;2.22;;
68216;SDS011;55037;52.354;4.992;2024-02-21T00:21:23;11.27;;;3.58;;
68216;SDS011;55037;52.354;4.992;2024-02-21T00:23:51;14.37;;;2.90;;
68216;SDS011;55037;52.354;4.992;2024-02-21T00:26:18;8.23;;;1.55;;
68216;SDS011;55037;52.354;4.992;2024-02-21T00:28:46;16.20;;;2.72;;
68216;SDS011;55037;52.354;4.992;2024-02-21T00:31:13;14.20;;;2.50;;
68216;SDS011;55037;52.354;4.992;2024-02-21T00:33:41;7.78;;;1.58;;
68216;SDS011;55037;52.354;4.992;2024-02-21T00:36:09;6.53;;;1.80;;
68216;SDS011;55037;52.354;4.992;2024-02-21T00:38:36;11.07;;;1.98;;
68216;SDS011;55037;52.354;4.992;2024-02-21T00:41:04;7.75;;;1.63;;
68216;SDS011;55037;52.354;4.992;2024-02-21T00:43:32;11.25;;;2.83;;
68216;SDS011;55037;52.354;4.992;2024-02-21T00:45:59;6.75;;;1.75;;
68216;SDS011;55037;52.354;4.992;2024-02-21T00:48:27;7.37;;;1.70;;
68216;SDS011;55037;52.354;4.992;2024-02-21T00:50:55;10.55;;;1.50;;
68216;SDS011;55037;52.354;4.992;2024-02-21T00:53:22;5.53;;;2.38;;
68216;SDS011;55037;52.354;4.992;2024-02-21T00:55:50;4.95;;;1.27;;
68216;SDS011;55037;52.354;4.992;2024-02-21T00:58:17;11.23;;;1.95;;
68216;SDS011;55037;52.354;4.992;2024-02-21T01:00:45;8.17;;;2.37;;
68216;SDS011;55037;52.354;4.992;2024-02-21T01:03:13;7.25;;;1.98;;
68216;SDS011;55037;52.354;4.992;2024-02-21T01:05:40;9.65;;;1.73;;
68216;SDS011;55037;52.354;4.992;2024-02-21T01:08:08;10.02;;;2.67;;
68216;SDS011;55037;52.354;4.992;2024-02-21T01:10:35;18.35;;;2.97;;
68216;SDS011;55037;52.354;4.992;2024-02-21T01:13:03;8.70;;;1.50;;
68216;SDS011;55037;52.354;4.992;2024-02-21T01:15:31;12.15;;;1.67;;
68216;SDS011;55037;52.354;4.992;2024-02-21T01:17:58;14.90;;;1.65;;
68216;SDS011;55037;52.354;4.992;2024-02-21T01:20:26;10.75;;;1.80;;
68216;SDS011;55037;52.354;4.992;2024-02-21T01:22:54;5.30;;;1.73;;
68216;SDS011;55037;52.354;4.992;2024-02-21T01:25:21;20.57;;;2.40;;
68216;SDS011;55037;52.354;4.992;2024-02-21T01:27:49;7.38;;;1.52;;
68216;SDS011;55037;52.354;4.992;2024-02-21T01:30:17;5.60;;;1.67;;
68216;SDS011;55037;52.354;4.992;2024-02-21T01:32:45;15.05;;;1.90;;
68216;SDS011;55037;52.354;4.992;2024-02-21T01:35:13;6.00;;;1.70;;
68216;SDS011;55037;52.354;4.992;2024-02-21T01:37:40;8.97;;;2.53;;
68216;SDS011;55037;52.354;4.992;2024-02-21T01:40:08;6.90;;;1.55;;
68216;SDS011;55037;52.354;4.992;2024-02-21T01:42:39;5.95;;;1.65;;
68216;SDS011;55037;52.354;4.992;2024-02-21T01:45:09;10.65;;;1.52;;
68216;SDS011;55037;52.354;4.992;2024-02-21T01:47:37;6.35;;;1.75;;
68216;SDS011;55037;52.354;4.992;2024-02-21T01:50:05;8.33;;;1.77;;
68216;SDS011;55037;52.354;4.992;2024-02-21T01:52:33;15.80;;;2.75;;
68216;SDS011;55037;52.354;4.992;2024-02-21T01:55:02;11.48;;;2.00;;
68216;SDS011;55037;52.354;4.992;2024-02-21T01:57:30;9.93;;;2.10;;
68216;SDS011;55037;52.354;4.992;2024-02-21T01:59:57;7.30;;;2.75;;
68216;SDS011;55037;52.354;4.992;2024-02-21T02:02:25;6.73;;;1.97;;
68216;SDS011;55037;52.354;4.992;2024-02-21T02:04:53;12.80;;;2.20;;
68216;SDS011;55037;52.354;4.992;2024-02-21T02:07:21;7.22;;;2.10;;
68216;SDS011;55037;52.354;4.992;2024-02-21T02:09:49;7.60;;;1.60;;
68216;SDS011;55037;52.354;4.992;2024-02-21T02:12:17;7.28;;;2.15;;
68216;SDS011;55037;52.354;4.992;2024-02-21T02:14:44;10.00;;;1.83;;
68216;SDS011;55037;52.354;4.992;2024-02-21T02:17:12;8.02;;;1.52;;
68216;SDS011;55037;52.354;4.992;2024-02-21T02:19:39;6.32;;;2.17;;
68216;SDS011;55037;52.354;4.992;2024-02-21T02:22:12;13.52;;;1.60;;
68216;SDS011;55037;52.354;4.992;2024-02-21T02:24:42;6.10;;;1.83;;
68216;SDS011;55037;52.354;4.992;2024-02-21T02:27:10;6.90;;;1.63;;
68216;SDS011;55037;52.354;4.992;2024-02-21T02:29:37;14.98;;;2.30;;
68216;SDS011;55037;52.354;4.992;2024-02-21T02:32:05;19.85;;;3.30;;
68216;SDS011;55037;52.354;4.992;2024-02-21T02:34:33;8.57;;;2.25;;
68216;SDS011;55037;52.354;4.992;2024-02-21T02:37:00;10.95;;;2.03;;
68216;SDS011;55037;52.354;4.992;2024-02-21T02:39:28;9.53;;;3.20;;
68216;SDS011;55037;52.354;4.992;2024-02-21T02:41:56;9.50;;;2.05;;
68216;SDS011;55037;52.354;4.992;2024-02-21T02:44:23;10.02;;;2.20;;
68216;SDS011;55037;52.354;4.992;2024-02-21T02:46:51;8.95;;;2.17;;
68216;SDS011;55037;52.354;4.992;2024-02-21T02:49:18;11.95;;;2.03;;
68216;SDS011;55037;52.354;4.992;2024-02-21T02:51:46;9.03;;;1.53;;
68216;SDS011;55037;52.354;4.992;2024-02-21T02:54:14;7.25;;;1.60;;
68216;SDS011;55037;52.354;4.992;2024-02-21T02:56:41;13.00;;;1.85;;
68216;SDS011;55037;52.354;4.992;2024-02-21T02:59:10;11.32;;;2.42;;
68216;SDS011;55037;52.354;4.992;2024-02-21T03:01:37;5.15;;;1.73;;
68216;SDS011;55037;52.354;4.992;2024-02-21T03:04:05;10.33;;;1.97;;
68216;SDS011;55037;52.354;4.992;2024-02-21T03:06:33;8.15;;;2.13;;
68216;SDS011;55037;52.354;4.992;2024-02-21T03:09:00;8.85;;;1.70;;
68216;SDS011;55037;52.354;4.992;2024-02-21T03:11:28;12.57;;;1.92;;
68216;SDS011;55037;52.354;4.992;2024-02-21T03:13:57;9.20;;;1.45;;
68216;SDS011;55037;52.354;4.992;2024-02-21T03:16:24;14.67;;;1.87;;
68216;SDS011;55037;52.354;4.992;2024-02-21T03:18:52;11.45;;;2.03;;
68216;SDS011;55037;52.354;4.992;2024-02-21T03:21:20;7.90;;;1.38;;
68216;SDS011;55037;52.354;4.992;2024-02-21T03:23:47;9.35;;;1.50;;
68216;SDS011;55037;52.354;4.992;2024-02-21T03:26:15;9.60;;;2.15;;
68216;SDS011;55037;52.354;4.992;2024-02-21T03:28:44;9.13;;;2.20;;
68216;SDS011;55037;52.354;4.992;2024-02-21T03:31:15;21.13;;;2.33;;
68216;SDS011;55037;52.354;4.992;2024-02-21T03:33:44;14.77;;;2.15;;
68216;SDS011;55037;52.354;4.992;2024-02-21T03:36:13;7.85;;;2.08;;
68216;SDS011;55037;52.354;4.992;2024-02-21T03:38:41;11.95;;;2.60;;
68216;SDS011;55037;52.354;4.992;2024-02-21T03:41:09;7.37;;;2.00;;
68216;SDS011;55037;52.354;4.992;2024-02-21T03:43:39;7.85;;;3.15;;
68216;SDS011;55037;52.354;4.992;2024-02-21T03:46:07;9.60;;;1.90;;
68216;SDS011;55037;52.354;4.992;2024-02-21T03:48:35;7.47;;;2.17;;
68216;SDS011;55037;52.354;4.992;2024-02-21T03:51:03;13.80;;;2.35;;
68216;SDS011;55037;52.354;4.992;2024-02-21T03:53:33;12.00;;;2.43;;
68216;SDS011;55037;52.354;4.992;2024-02-21T03:56:01;10.82;;;2.42;;
68216;SDS011;55037;52.354;4.992;2024-02-21T03:58:30;7.68;;;2.15;;
68216;SDS011;55037;52.354;4.992;2024-02-21T04:01:01;12.70;;;2.58;;
68216;SDS011;55037;52.354;4.992;2024-02-21T04:03:29;9.00;;;1.90;;
68216;SDS011;55037;52.354;4.992;2024-02-21T04:05:57;15.23;;;2.47;;
68216;SDS011;55037;52.354;4.992;2024-02-21T04:08:25;6.63;;;2.30;;
68216;SDS011;55037;52.354;4.992;2024-02-21T04:10:53;8.95;;;2.20;;
68216;SDS011;55037;52.354;4.992;2024-02-21T04:13:20;11.23;;;2.70;;
68216;SDS011;55037;52.354;4.992;2024-02-21T04:15:49;3.85;;;1.80;;
68216;SDS011;55037;52.354;4.992;2024-02-21T04:18:17;13.63;;;2.50;;
68216;SDS011;55037;52.354;4.992;2024-02-21T04:20:44;16.70;;;2.90;;
68216;SDS011;55037;52.354;4.992;2024-02-21T04:23:12;9.25;;;1.98;;
68216;SDS011;55037;52.354;4.992;2024-02-21T04:25:40;12.90;;;2.08;;
68216;SDS011;55037;52.354;4.992;2024-02-21T04:28:08;31.02;;;2.88;;
68216;SDS011;55037;52.354;4.992;2024-02-21T04:30:35;4.53;;;1.50;;
68216;SDS011;55037;52.354;4.992;2024-02-21T04:33:03;15.75;;;2.30;;
68216;SDS011;55037;52.354;4.992;2024-02-21T04:35:31;7.57;;;1.60;;
68216;SDS011;55037;52.354;4.992;2024-02-21T04:37:58;8.02;;;2.28;;
68216;SDS011;55037;52.354;4.992;2024-02-21T04:40:26;8.82;;;2.85;;
68216;SDS011;55037;52.354;4.992;2024-02-21T04:42:54;11.27;;;2.00;;
68216;SDS011;55037;52.354;4.992;2024-02-21T04:45:22;9.35;;;2.10;;
68216;SDS011;55037;52.354;4.992;2024-02-21T04:47:49;10.85;;;3.03;;
68216;SDS011;55037;52.354;4.992;2024-02-21T04:50:17;8.73;;;2.42;;
68216;SDS011;55037;52.354;4.992;2024-02-21T04:52:45;15.38;;;3.10;;
68216;SDS011;55037;52.354;4.992;2024-02-21T04:55:12;12.33;;;2.77;;
68216;SDS011;55037;52.354;4.992;2024-02-21T04:57:40;14.43;;;2.83;;
68216;SDS011;55037;52.354;4.992;2024-02-21T05:00:08;12.35;;;2.78;;
68216;SDS011;55037;52.354;4.992;2024-02-21T05:02:36;10.77;;;3.17;;
68216;SDS011;55037;52.354;4.992;2024-02-21T05:05:03;10.20;;;2.38;;
68216;SDS011;55037;52.354;4.992;2024-02-21T05:07:31;9.67;;;2.73;;
68216;SDS011;55037;52.354;4.992;2024-02-21T05:09:59;7.00;;;3.28;;
68216;SDS011;55037;52.354;4.992;2024-02-21T05:12:27;14.25;;;3.22;;
68216;SDS011;55037;52.354;4.992;2024-02-21T05:14:55;5.22;;;2.83;;
68216;SDS011;55037;52.354;4.992;2024-02-21T05:17:22;9.60;;;3.15;;
68216;SDS011;55037;52.354;4.992;2024-02-21T05:19:50;7.77;;;3.00;;
68216;SDS011;55037;52.354;4.992;2024-02-21T05:22:18;12.07;;;3.10;;
68216;SDS011;55037;52.354;4.992;2024-02-21T05:24:45;7.65;;;3.10;;
68216;SDS011;55037;52.354;4.992;2024-02-21T05:27:13;10.68;;;3.30;;
68216;SDS011;55037;52.354;4.992;2024-02-21T05:29:40;16.83;;;3.67;;
68216;SDS011;55037;52.354;4.992;2024-02-21T05:32:08;9.53;;;2.67;;
68216;SDS011;55037;52.354;4.992;2024-02-21T05:34:36;8.40;;;2.47;;
68216;SDS011;55037;52.354;4.992;2024-02-21T05:37:03;6.35;;;2.65;;
68216;SDS011;55037;52.354;4.992;2024-02-21T05:39:31;9.90;;;3.28;;
68216;SDS011;55037;52.354;4.992;2024-02-21T05:41:58;9.38;;;3.67;;
68216;SDS011;55037;52.354;4.992;2024-02-21T05:44:26;5.53;;;2.80;;
68216;SDS011;55037;52.354;4.992;2024-02-21T05:46:54;9.20;;;3.35;;
68216;SDS011;55037;52.354;4.992;2024-02-21T05:49:24;9.50;;;2.72;;
68216;SDS011;55037;52.354;4.992;2024-02-21T05:51:52;6.68;;;2.53;;
68216;SDS011;55037;52.354;4.992;2024-02-21T05:54:20;8.30;;;4.05;;
68216;SDS011;55037;52.354;4.992;2024-02-21T05:56:49;7.83;;;3.57;;
68216;SDS011;55037;52.354;4.992;2024-02-21T05:59:16;9.75;;;4.07;;
68216;SDS011;55037;52.354;4.992;2024-02-21T06:01:44;7.70;;;3.65;;
68216;SDS011;55037;52.354;4.992;2024-02-21T06:04:12;8.25;;;3.92;;
68216;SDS011;55037;52.354;4.992;2024-02-21T06:06:40;7.30;;;3.83;;
68216;SDS011;55037;52.354;4.992;2024-02-21T06:09:08;9.77;;;4.03;;
68216;SDS011;55037;52.354;4.992;2024-02-21T06:11:35;7.80;;;4.43;;
68216;SDS011;55037;52.354;4.992;2024-02-21T06:14:04;8.85;;;4.85;;
68216;SDS011;55037;52.354;4.992;2024-02-21T06:16:32;10.20;;;4.60;;
68216;SDS011;55037;52.354;4.992;2024-02-21T06:19:00;8.65;;;4.40;;
68216;SDS011;55037;52.354;4.992;2024-02-21T06:21:29;12.17;;;4.80;;
68216;SDS011;55037;52.354;4.992;2024-02-21T06:23:56;10.18;;;5.25;;
68216;SDS011;55037;52.354;4.992;2024-02-21T06:26:24;9.48;;;5.25;;
68216;SDS011;55037;52.354;4.992;2024-02-21T06:28:51;10.30;;;5.35;;
68216;SDS011;55037;52.354;4.992;2024-02-21T06:31:19;13.07;;;7.20;;
68216;SDS011;55037;52.354;4.992;2024-02-21T06:33:47;7.83;;;4.73;;
68216;SDS011;55037;52.354;4.992;2024-02-21T06:36:14;7.40;;;4.88;;
68216;SDS011;55037;52.354;4.992;2024-02-21T06:38:42;13.43;;;5.90;;
68216;SDS011;55037;52.354;4.992;2024-02-21T06:41:16;12.98;;;6.40;;
68216;SDS011;55037;52.354;4.992;2024-02-21T06:43:45;10.15;;;6.13;;
68216;SDS011;55037;52.354;4.992;2024-02-21T06:46:26;7.17;;;5.07;;
68216;SDS011;55037;52.354;4.992;2024-02-21T06:48:56;11.40;;;5.53;;
68216;SDS011;55037;52.354;4.992;2024-02-21T06:51:24;13.43;;;5.95;;
68216;SDS011;55037;52.354;4.992;2024-02-21T06:53:52;13.00;;;5.05;;
68216;SDS011;55037;52.354;4.992;2024-02-21T06:56:20;10.13;;;6.25;;
68216;SDS011;55037;52.354;4.992;2024-02-21T06:58:47;11.40;;;7.07;;
68216;SDS011;55037;52.354;4.992;2024-02-21T07:01:15;12.48;;;5.40;;
68216;SDS011;55037;52.354;4.992;2024-02-21T07:03:43;17.23;;;5.65;;
68216;SDS011;55037;52.354;4.992;2024-02-21T07:06:10;13.60;;;6.07;;
68216;SDS011;55037;52.354;4.992;2024-02-21T07:08:39;10.98;;;5.65;;
68216;SDS011;55037;52.354;4.992;2024-02-21T07:11:07;10.97;;;5.57;;
68216;SDS011;55037;52.354;4.992;2024-02-21T07:13:34;9.63;;;5.32;;
68216;SDS011;55037;52.354;4.992;2024-02-21T07:16:02;14.90;;;6.47;;
68216;SDS011;55037;52.354;4.992;2024-02-21T07:18:30;12.07;;;5.97;;
68216;SDS011;55037;52.354;4.992;2024-02-21T07:20:57;8.52;;;5.57;;
68216;SDS011;55037;52.354;4.992;2024-02-21T07:23:27;11.70;;;6.73;;
68216;SDS011;55037;52.354;4.992;2024-02-21T07:25:55;12.07;;;6.10;;
68216;SDS011;55037;52.354;4.992;2024-02-21T07:28:22;12.77;;;5.80;;
68216;SDS011;55037;52.354;4.992;2024-02-21T07:30:50;17.80;;;7.20;;
68216;SDS011;55037;52.354;4.992;2024-02-21T07:33:18;10.90;;;6.57;;
68216;SDS011;55037;52.354;4.992;2024-02-21T07:35:45;9.17;;;6.00;;
68216;SDS011;55037;52.354;4.992;2024-02-21T07:38:13;5.72;;;4.63;;
68216;SDS011;55037;52.354;4.992;2024-02-21T07:40:41;10.40;;;7.38;;
68216;SDS011;55037;52.354;4.992;2024-02-21T07:43:09;12.90;;;6.05;;
68216;SDS011;55037;52.354;4.992;2024-02-21T07:45:37;16.50;;;6.78;;
68216;SDS011;55037;52.354;4.992;2024-02-21T07:48:06;9.23;;;5.67;;
68216;SDS011;55037;52.354;4.992;2024-02-21T07:50:33;7.97;;;4.35;;
68216;SDS011;55037;52.354;4.992;2024-02-21T07:53:01;9.63;;;5.63;;
68216;SDS011;55037;52.354;4.992;2024-02-21T07:55:29;10.40;;;6.22;;
68216;SDS011;55037;52.354;4.992;2024-02-21T07:57:56;11.63;;;6.03;;
68216;SDS011;55037;52.354;4.992;2024-02-21T08:00:24;11.30;;;6.13;;
68216;SDS011;55037;52.354;4.992;2024-02-21T08:02:52;9.45;;;3.95;;
68216;SDS011;55037;52.354;4.992;2024-02-21T08:05:19;12.48;;;5.95;;
68216;SDS011;55037;52.354;4.992;2024-02-21T08:07:48;14.07;;;5.78;;
68216;SDS011;55037;52.354;4.992;2024-02-21T08:10:16;8.95;;;5.43;;
68216;SDS011;55037;52.354;4.992;2024-02-21T08:12:44;9.63;;;5.33;;
68216;SDS011;55037;52.354;4.992;2024-02-21T08:15:11;11.57;;;6.03;;
68216;SDS011;55037;52.354;4.992;2024-02-21T08:17:39;9.68;;;6.00;;
68216;SDS011;55037;52.354;4.992;2024-02-21T08:20:06;11.35;;;5.05;;
68216;SDS011;55037;52.354;4.992;2024-02-21T08:22:37;7.32;;;4.43;;
68216;SDS011;55037;52.354;4.992;2024-02-21T08:25:05;9.40;;;5.40;;
68216;SDS011;55037;52.354;4.992;2024-02-21T08:27:33;8.20;;;4.45;;
68216;SDS011;55037;52.354;4.992;2024-02-21T08:30:01;10.52;;;5.55;;
68216;SDS011;55037;52.354;4.992;2024-02-21T08:32:28;9.98;;;4.95;;
68216;SDS011;55037;52.354;4.992;2024-02-21T08:34:56;11.32;;;6.00;;
68216;SDS011;55037;52.354;4.992;2024-02-21T08:37:24;12.40;;;5.07;;
68216;SDS011;55037;52.354;4.992;2024-02-21T08:39:51;13.77;;;5.40;;
68216;SDS011;55037;52.354;4.992;2024-02-21T08:42:19;9.70;;;5.60;;
68216;SDS011;55037;52.354;4.992;2024-02-21T08:44:46;11.43;;;5.13;;
68216;SDS011;55037;52.354;4.992;2024-02-21T08:47:14;12.75;;;6.18;;
68216;SDS011;55037;52.354;4.992;2024-02-21T08:49:42;9.43;;;5.60;;
68216;SDS011;55037;52.354;4.992;2024-02-21T08:52:09;11.23;;;5.82;;
68216;SDS011;55037;52.354;4.992;2024-02-21T08:54:37;9.80;;;6.55;;
68216;SDS011;55037;52.354;4.992;2024-02-21T08:57:05;11.70;;;5.95;;
68216;SDS011;55037;52.354;4.992;2024-02-21T08:59:32;7.72;;;4.85;;
68216;SDS011;55037;52.354;4.992;2024-02-21T09:02:00;16.53;;;7.53;;
68216;SDS011;55037;52.354;4.992;2024-02-21T09:04:30;13.35;;;7.18;;
68216;SDS011;55037;52.354;4.992;2024-02-21T09:06:58;14.70;;;6.00;;
68216;SDS011;55037;52.354;4.992;2024-02-21T09:09:26;8.30;;;5.30;;
68216;SDS011;55037;52.354;4.992;2024-02-21T09:11:55;10.95;;;6.05;;
68216;SDS011;55037;52.354;4.992;2024-02-21T09:14:24;15.03;;;6.17;;
68216;SDS011;55037;52.354;4.992;2024-02-21T09:16:51;13.02;;;5.10;;
68216;SDS011;55037;52.354;4.992;2024-02-21T09:19:19;11.40;;;5.22;;
68216;SDS011;55037;52.354;4.992;2024-02-21T09:21:47;9.27;;;5.38;;
68216;SDS011;55037;52.354;4.992;2024-02-21T09:24:15;14.25;;;6.47;;
68216;SDS011;55037;52.354;4.992;2024-02-21T09:26:43;12.83;;;5.87;;
68216;SDS011;55037;52.354;4.992;2024-02-21T09:29:10;10.20;;;5.50;;
68216;SDS011;55037;52.354;4.992;2024-02-21T09:31:38;9.00;;;5.20;;
68216;SDS011;55037;52.354;4.992;2024-02-21T09:34:06;8.65;;;5.10;;
68216;SDS011;55037;52.354;4.992;2024-02-21T09:36:34;13.52;;;6.97;;
68216;SDS011;55037;52.354;4.992;2024-02-21T09:39:01;7.03;;;3.80;;
68216;SDS011;55037;52.354;4.992;2024-02-21T09:41:29;14.20;;;6.38;;
68216;SDS011;55037;52.354;4.992;2024-02-21T09:43:56;11.50;;;6.63;;
68216;SDS011;55037;52.354;4.992;2024-02-21T09:46:29;10.55;;;5.50;;
68216;SDS011;55037;52.354;4.992;2024-02-21T09:49:10;11.20;;;6.20;;
68216;SDS011;55037;52.354;4.992;2024-02-21T09:51:41;12.40;;;6.30;;
68216;SDS011;55037;52.354;4.992;2024-02-21T09:54:09;14.95;;;7.15;;
68216;SDS011;55037;52.354;4.992;2024-02-21T09:56:45;13.52;;;7.43;;
68216;SDS011;55037;52.354;4.992;2024-02-21T09:59:14;18.27;;;9.65;;
68216;SDS011;55037;52.354;4.992;2024-02-21T10:01:42;12.63;;;7.53;;
68216;SDS011;55037;52.354;4.992;2024-02-21T10:04:11;16.30;;;7.30;;
68216;SDS011;55037;52.354;4.992;2024-02-21T10:06:39;15.25;;;7.45;;
68216;SDS011;55037;52.354;4.992;2024-02-21T10:09:07;12.57;;;6.30;;
68216;SDS011;55037;52.354;4.992;2024-02-21T10:11:34;12.63;;;6.47;;
68216;SDS011;55037;52.354;4.992;2024-02-21T10:14:07;8.52;;;5.53;;
68216;SDS011;55037;52.354;4.992;2024-02-21T10:16:35;8.27;;;4.83;;
68216;SDS011;55037;52.354;4.992;2024-02-21T10:19:04;7.13;;;4.68;;
68216;SDS011;55037;52.354;4.992;2024-02-21T10:21:32;12.20;;;5.68;;
68216;SDS011;55037;52.354;4.992;2024-02-21T10:23:59;12.30;;;6.18;;
68216;SDS011;55037;52.354;4.992;2024-02-21T10:26:27;16.42;;;7.40;;
68216;SDS011;55037;52.354;4.992;2024-02-21T10:28:54;11.17;;;6.00;;
68216;SDS011;55037;52.354;4.992;2024-02-21T10:31:23;8.18;;;4.50;;
68216;SDS011;55037;52.354;4.992;2024-02-21T10:33:58;13.02;;;6.18;;
68216;SDS011;55037;52.354;4.992;2024-02-21T10:36:29;10.10;;;5.95;;
68216;SDS011;55037;52.354;4.992;2024-02-21T10:38:57;8.70;;;5.72;;
68216;SDS011;55037;52.354;4.992;2024-02-21T10:41:24;11.47;;;4.97;;
68216;SDS011;55037;52.354;4.992;2024-02-21T10:43:54;7.28;;;4.72;;
68216;SDS011;55037;52.354;4.992;2024-02-21T10:46:23;8.75;;;4.22;;
68216;SDS011;55037;52.354;4.992;2024-02-21T10:51:26;7.03;;;3.70;;
68216;SDS011;55037;52.354;4.992;2024-02-21T10:56:43;13.32;;;3.78;;
68216;SDS011;55037;52.354;4.992;2024-02-21T10:59:11;9.05;;;4.13;;
68216;SDS011;55037;52.354;4.992;2024-02-21T11:01:40;8.63;;;4.75;;
68216;SDS011;55037;52.354;4.992;2024-02-21T11:04:09;8.32;;;4.22;;
68216;SDS011;55037;52.354;4.992;2024-02-21T11:06:40;8.67;;;4.37;;
68216;SDS011;55037;52.354;4.992;2024-02-21T11:09:09;8.25;;;4.43;;
68216;SDS011;55037;52.354;4.992;2024-02-21T11:11:38;6.97;;;4.18;;
68216;SDS011;55037;52.354;4.992;2024-02-21T11:14:08;9.30;;;4.05;;
68216;SDS011;55037;52.354;4.992;2024-02-21T11:16:40;7.60;;;4.47;;
68216;SDS011;55037;52.354;4.992;2024-02-21T11:19:09;7.10;;;4.03;;
68216;SDS011;55037;52.354;4.992;2024-02-21T11:21:38;10.13;;;4.75;;
68216;SDS011;55037;52.354;4.992;2024-02-21T11:24:07;6.75;;;4.63;;
68216;SDS011;55037;52.354;4.992;2024-02-21T11:26:36;9.60;;;4.47;;
68216;SDS011;55037;52.354;4.992;2024-02-21T11:29:04;7.38;;;4.30;;
68216;SDS011;55037;52.354;4.992;2024-02-21T11:31:42;5.03;;;3.80;;
68216;SDS011;55037;52.354;4.992;2024-02-21T11:34:10;7.10;;;4.80;;
68216;SDS011;55037;52.354;4.992;2024-02-21T11:36:48;9.10;;;4.88;;
68216;SDS011;55037;52.354;4.992;2024-02-21T11:42:00;6.45;;;3.67;;
68216;SDS011;55037;52.354;4.992;2024-02-21T11:44:27;7.60;;;3.97;;
68216;SDS011;55037;52.354;4.992;2024-02-21T11:46:55;10.60;;;4.25;;
68216;SDS011;55037;52.354;4.992;2024-02-21T11:49:24;5.40;;;3.13;;
68216;SDS011;55037;52.354;4.992;2024-02-21T11:52:02;10.32;;;4.10;;
68216;SDS011;55037;52.354;4.992;2024-02-21T11:54:34;7.97;;;5.13;;
68216;SDS011;55037;52.354;4.992;2024-02-21T11:57:02;6.40;;;3.73;;
68216;SDS011;55037;52.354;4.992;2024-02-21T11:59:31;4.88;;;3.33;;
68216;SDS011;55037;52.354;4.992;2024-02-21T12:01:59;6.57;;;3.63;;
68216;SDS011;55037;52.354;4.992;2024-02-21T12:04:27;6.95;;;4.70;;
68216;SDS011;55037;52.354;4.992;2024-02-21T12:06:56;6.57;;;3.85;;
68216;SDS011;55037;52.354;4.992;2024-02-21T12:09:26;7.33;;;4.43;;
68216;SDS011;55037;52.354;4.992;2024-02-21T12:12:01;6.53;;;4.07;;
68216;SDS011;55037;52.354;4.992;2024-02-21T12:14:30;7.47;;;4.38;;
68216;SDS011;55037;52.354;4.992;2024-02-21T12:16:58;6.43;;;4.57;;
68216;SDS011;55037;52.354;4.992;2024-02-21T12:19:28;9.23;;;5.03;;
68216;SDS011;55037;52.354;4.992;2024-02-21T12:21:58;8.30;;;5.30;;
68216;SDS011;55037;52.354;4.992;2024-02-21T12:24:26;7.00;;;4.72;;
68216;SDS011;55037;52.354;4.992;2024-02-21T12:26:55;12.60;;;5.75;;
68216;SDS011;55037;52.354;4.992;2024-02-21T12:29:23;7.45;;;4.63;;
68216;SDS011;55037;52.354;4.992;2024-02-21T12:31:55;7.07;;;4.90;;
68216;SDS011;55037;52.354;4.992;2024-02-21T12:34:24;5.00;;;3.63;;
68216;SDS011;55037;52.354;4.992;2024-02-21T12:37:10;10.13;;;5.72;;
68216;SDS011;55037;52.354;4.992;2024-02-21T12:39:40;6.40;;;4.70;;
68216;SDS011;55037;52.354;4.992;2024-02-21T12:42:07;8.52;;;4.72;;
68216;SDS011;55037;52.354;4.992;2024-02-21T12:44:38;5.72;;;3.70;;
68216;SDS011;55037;52.354;4.992;2024-02-21T12:47:05;6.53;;;4.03;;
68216;SDS011;55037;52.354;4.992;2024-02-21T12:49:35;5.65;;;3.95;;
68216;SDS011;55037;52.354;4.992;2024-02-21T12:52:03;8.85;;;4.95;;
68216;SDS011;55037;52.354;4.992;2024-02-21T12:54:31;5.38;;;3.75;;
68216;SDS011;55037;52.354;4.992;2024-02-21T12:56:58;6.03;;;5.00;;
68216;SDS011;55037;52.354;4.992;2024-02-21T12:59:29;6.73;;;4.33;;
68216;SDS011;55037;52.354;4.992;2024-02-21T13:01:57;5.28;;;3.85;;
68216;SDS011;55037;52.354;4.992;2024-02-21T13:04:25;6.82;;;3.95;;
68216;SDS011;55037;52.354;4.992;2024-02-21T13:06:52;6.15;;;3.88;;
68216;SDS011;55037;52.354;4.992;2024-02-21T13:09:21;9.25;;;4.15;;
68216;SDS011;55037;52.354;4.992;2024-02-21T13:11:48;6.07;;;3.70;;
68216;SDS011;55037;52.354;4.992;2024-02-21T13:14:18;5.78;;;3.70;;
68216;SDS011;55037;52.354;4.992;2024-02-21T13:16:45;6.20;;;3.90;;
68216;SDS011;55037;52.354;4.992;2024-02-21T13:19:13;8.02;;;4.35;;
68216;SDS011;55037;52.354;4.992;2024-02-21T13:21:44;7.10;;;3.47;;
68216;SDS011;55037;52.354;4.992;2024-02-21T13:24:12;6.00;;;4.03;;
68216;SDS011;55037;52.354;4.992;2024-02-21T13:26:39;6.65;;;4.10;;
68216;SDS011;55037;52.354;4.992;2024-02-21T13:29:07;7.28;;;3.88;;
68216;SDS011;55037;52.354;4.992;2024-02-21T13:31:35;7.18;;;4.07;;
68216;SDS011;55037;52.354;4.992;2024-02-21T13:34:03;5.28;;;3.88;;
68216;SDS011;55037;52.354;4.992;2024-02-21T13:36:32;11.97;;;3.40;;
68216;SDS011;55037;52.354;4.992;2024-02-21T13:39:00;8.75;;;3.38;;
68216;SDS011;55037;52.354;4.992;2024-02-21T13:41:28;4.63;;;2.95;;
68216;SDS011;55037;52.354;4.992;2024-02-21T13:43:56;6.05;;;3.35;;
68216;SDS011;55037;52.354;4.992;2024-02-21T13:46:24;5.80;;;2.80;;
68216;SDS011;55037;52.354;4.992;2024-02-21T13:48:52;6.80;;;3.43;;
68216;SDS011;55037;52.354;4.992;2024-02-21T13:51:25;4.93;;;2.75;;
68216;SDS011;55037;52.354;4.992;2024-02-21T13:53:52;7.03;;;3.20;;
68216;SDS011;55037;52.354;4.992;2024-02-21T13:56:20;5.25;;;3.03;;
68216;SDS011;55037;52.354;4.992;2024-02-21T13:58:47;3.50;;;2.67;;
68216;SDS011;55037;52.354;4.992;2024-02-21T14:01:15;5.93;;;3.10;;
68216;SDS011;55037;52.354;4.992;2024-02-21T14:03:43;7.72;;;3.05;;
68216;SDS011;55037;52.354;4.992;2024-02-21T14:06:10;9.48;;;4.28;;
68216;SDS011;55037;52.354;4.992;2024-02-21T14:08:38;5.28;;;3.00;;
68216;SDS011;55037;52.354;4.992;2024-02-21T14:11:06;5.85;;;3.45;;
68216;SDS011;55037;52.354;4.992;2024-02-21T14:13:34;7.37;;;3.37;;
68216;SDS011;55037;52.354;4.992;2024-02-21T14:16:02;5.85;;;3.20;;
68216;SDS011;55037;52.354;4.992;2024-02-21T14:18:30;5.20;;;2.80;;
68216;SDS011;55037;52.354;4.992;2024-02-21T14:21:00;6.15;;;2.45;;
68216;SDS011;55037;52.354;4.992;2024-02-21T14:23:27;11.50;;;3.05;;
68216;SDS011;55037;52.354;4.992;2024-02-21T14:25:55;6.20;;;2.77;;
68216;SDS011;55037;52.354;4.992;2024-02-21T14:28:24;4.32;;;2.15;;
68216;SDS011;55037;52.354;4.992;2024-02-21T14:30:52;4.63;;;3.03;;
68216;SDS011;55037;52.354;4.992;2024-02-21T14:33:23;6.25;;;3.20;;
68216;SDS011;55037;52.354;4.992;2024-02-21T14:35:52;5.43;;;3.38;;
68216;SDS011;55037;52.354;4.992;2024-02-21T14:38:19;4.27;;;3.27;;
68216;SDS011;55037;52.354;4.992;2024-02-21T14:40:47;5.55;;;3.63;;
68216;SDS011;55037;52.354;4.992;2024-02-21T14:43:14;6.07;;;3.70;;
68216;SDS011;55037;52.354;4.992;2024-02-21T14:45:44;6.75;;;3.45;;
68216;SDS011;55037;52.354;4.992;2024-02-21T14:48:14;8.80;;;4.38;;
68216;SDS011;55037;52.354;4.992;2024-02-21T14:50:42;9.13;;;4.00;;
68216;SDS011;55037;52.354;4.992;2024-02-21T14:53:09;7.25;;;5.40;;
68216;SDS011;55037;52.354;4.992;2024-02-21T14:55:37;5.85;;;3.72;;
68216;SDS011;55037;52.354;4.992;2024-02-21T14:58:05;8.52;;;4.55;;